sensor_id;sensor_type;location;lat;lon;timestamp;pressure;altitude;pressure_sealevel;temperature;humidity
59289;BME280;45056;47.602;9.886;2024-02-04T00:00:04;93984.56;;;7.06;61.94
59289;BME280;45056;47.602;9.886;2024-02-04T00:02:35;93986.09;;;7.03;61.90
59289;BME280;45056;47.602;9.886;2024-02-04T00:05:03;93988.06;;;7.03;61.84
59289;BME280;45056;47.602;9.886;2024-02-04T00:07:32;93986.09;;;7.00;61.79
59289;BME280;45056;47.602;9.886;2024-02-04T00:10:00;93997.34;;;6.98;61.69
59289;BME280;45056;47.602;9.886;2024-02-04T00:12:28;94006.63;;;6.97;61.58
59289;BME280;45056;47.602;9.886;2024-02-04T00:14:56;94002.38;;;6.96;61.52
59289;BME280;45056;47.602;9.886;2024-02-04T00:17:24;94007.00;;;6.96;61.32
59289;BME280;45056;47.602;9.886;2024-02-04T00:19:57;94018.97;;;6.95;61.33
59289;BME280;45056;47.602;9.886;2024-02-04T00:22:25;94017.44;;;6.93;61.38
59289;BME280;45056;47.602;9.886;2024-02-04T00:24:53;94024.81;;;6.93;61.23
59289;BME280;45056;47.602;9.886;2024-02-04T00:27:27;94031.38;;;6.92;61.37
59289;BME280;45056;47.602;9.886;2024-02-04T00:29:55;94034.47;;;6.90;61.68
59289;BME280;45056;47.602;9.886;2024-02-04T00:32:23;94042.56;;;6.90;61.84
59289;BME280;45056;47.602;9.886;2024-02-04T00:34:52;94050.31;;;6.92;62.05
59289;BME280;45056;47.602;9.886;2024-02-04T00:37:22;94050.69;;;6.90;62.01
59289;BME280;45056;47.602;9.886;2024-02-04T00:39:50;94062.69;;;6.89;62.17
59289;BME280;45056;47.602;9.886;2024-02-04T00:42:18;94065.38;;;6.89;62.18
59289;BME280;45056;47.602;9.886;2024-02-04T00:44:46;94070.78;;;6.86;62.30
59289;BME280;45056;47.602;9.886;2024-02-04T00:47:14;94057.66;;;6.84;62.54
59289;BME280;45056;47.602;9.886;2024-02-04T00:49:42;94052.63;;;6.83;62.68
59289;BME280;45056;47.602;9.886;2024-02-04T00:52:10;94046.06;;;6.84;62.77
59289;BME280;45056;47.602;9.886;2024-02-04T00:54:39;94044.94;;;6.81;62.88
59289;BME280;45056;47.602;9.886;2024-02-04T00:57:07;94053.03;;;6.81;62.94
59289;BME280;45056;47.602;9.886;2024-02-04T00:59:35;94048.38;;;6.82;62.84
59289;BME280;45056;47.602;9.886;2024-02-04T01:02:03;94057.28;;;6.78;63.03
59289;BME280;45056;47.602;9.886;2024-02-04T01:04:31;94066.56;;;6.77;63.10
59289;BME280;45056;47.602;9.886;2024-02-04T01:06:59;94065.03;;;6.76;63.26
59289;BME280;45056;47.602;9.886;2024-02-04T01:09:27;94065.44;;;6.75;63.47
59289;BME280;45056;47.602;9.886;2024-02-04T01:11:57;94061.94;;;6.74;63.63
59289;BME280;45056;47.602;9.886;2024-02-04T01:14:25;94059.63;;;6.73;63.66
59289;BME280;45056;47.602;9.886;2024-02-04T01:16:53;94057.31;;;6.71;63.78
59289;BME280;45056;47.602;9.886;2024-02-04T01:19:21;94035.66;;;6.68;63.94
59289;BME280;45056;47.602;9.886;2024-02-04T01:21:49;94017.88;;;6.67;63.89
59289;BME280;45056;47.602;9.886;2024-02-04T01:24:17;93991.63;;;6.63;64.00
59289;BME280;45056;47.602;9.886;2024-02-04T01:26:45;93989.34;;;6.62;63.92
59289;BME280;45056;47.602;9.886;2024-02-04T01:29:14;93996.31;;;6.56;63.88
59289;BME280;45056;47.602;9.886;2024-02-04T01:31:43;93993.19;;;6.54;63.96
59289;BME280;45056;47.602;9.886;2024-02-04T01:34:10;93978.53;;;6.51;63.92
59289;BME280;45056;47.602;9.886;2024-02-04T01:36:38;93981.22;;;6.47;64.02
59289;BME280;45056;47.602;9.886;2024-02-04T01:39:06;93968.13;;;6.46;63.97
59289;BME280;45056;47.602;9.886;2024-02-04T01:41:35;93966.56;;;6.45;63.87
59289;BME280;45056;47.602;9.886;2024-02-04T01:44:04;93967.75;;;6.44;63.79
59289;BME280;45056;47.602;9.886;2024-02-04T01:46:34;93960.00;;;6.42;63.62
59289;BME280;45056;47.602;9.886;2024-02-04T01:49:02;93969.28;;;6.41;63.38
59289;BME280;45056;47.602;9.886;2024-02-04T01:51:30;93955.75;;;6.41;63.24
59289;BME280;45056;47.602;9.886;2024-02-04T01:53:58;93948.44;;;6.42;62.86
59289;BME280;45056;47.602;9.886;2024-02-04T01:56:26;93940.69;;;6.40;62.90
59289;BME280;45056;47.602;9.886;2024-02-04T01:58:55;93948.06;;;6.40;62.84
59289;BME280;45056;47.602;9.886;2024-02-04T02:01:26;93968.53;;;6.41;62.89
59289;BME280;45056;47.602;9.886;2024-02-04T02:03:55;93958.47;;;6.41;62.70
59289;BME280;45056;47.602;9.886;2024-02-04T02:06:23;93968.50;;;6.44;62.66
59289;BME280;45056;47.602;9.886;2024-02-04T02:08:54;93967.72;;;6.47;62.64
59289;BME280;45056;47.602;9.886;2024-02-04T02:11:32;93960.38;;;6.52;62.53
59289;BME280;45056;47.602;9.886;2024-02-04T02:14:13;93969.63;;;6.50;62.28
59289;BME280;45056;47.602;9.886;2024-02-04T02:16:44;93967.31;;;6.53;62.27
59289;BME280;45056;47.602;9.886;2024-02-04T02:19:34;93969.25;;;6.52;62.27
59289;BME280;45056;47.602;9.886;2024-02-04T02:22:25;93960.00;;;6.53;62.50
59289;BME280;45056;47.602;9.886;2024-02-04T02:24:58;93963.06;;;6.52;62.73
59289;BME280;45056;47.602;9.886;2024-02-04T02:27:27;93948.00;;;6.50;63.07
59289;BME280;45056;47.602;9.886;2024-02-04T02:29:54;93962.69;;;6.49;63.33
59289;BME280;45056;47.602;9.886;2024-02-04T02:32:23;93955.75;;;6.48;63.44
59289;BME280;45056;47.602;9.886;2024-02-04T02:34:52;93953.81;;;6.49;63.63
59289;BME280;45056;47.602;9.886;2024-02-04T02:37:27;93952.28;;;6.48;63.88
59289;BME280;45056;47.602;9.886;2024-02-04T02:40:10;93963.47;;;6.46;63.93
59289;BME280;45056;47.602;9.886;2024-02-04T02:42:47;93965.41;;;6.46;63.75
59289;BME280;45056;47.602;9.886;2024-02-04T02:45:21;93961.16;;;6.48;63.68
59289;BME280;45056;47.602;9.886;2024-02-04T02:47:52;93960.00;;;6.46;63.70
59289;BME280;45056;47.602;9.886;2024-02-04T02:50:21;93943.78;;;6.42;63.79
59289;BME280;45056;47.602;9.886;2024-02-04T02:52:50;93934.53;;;6.36;63.85
59289;BME280;45056;47.602;9.886;2024-02-04T02:55:19;93937.66;;;6.31;63.92
59289;BME280;45056;47.602;9.886;2024-02-04T02:57:47;93937.25;;;6.25;64.36
59289;BME280;45056;47.602;9.886;2024-02-04T03:00:15;93939.56;;;6.23;64.45
59289;BME280;45056;47.602;9.886;2024-02-04T03:02:44;93936.50;;;6.17;64.70
59289;BME280;45056;47.602;9.886;2024-02-04T03:05:12;93941.91;;;6.14;64.88
59289;BME280;45056;47.602;9.886;2024-02-04T03:07:40;93936.50;;;6.10;64.91
59289;BME280;45056;47.602;9.886;2024-02-04T03:10:09;93944.22;;;6.08;64.96
59289;BME280;45056;47.602;9.886;2024-02-04T03:12:39;93945.00;;;6.09;64.71
59289;BME280;45056;47.602;9.886;2024-02-04T03:15:07;93952.34;;;6.08;64.66
59289;BME280;45056;47.602;9.886;2024-02-04T03:17:36;93953.13;;;6.09;64.78
59289;BME280;45056;47.602;9.886;2024-02-04T03:20:04;93959.28;;;6.09;64.49
59289;BME280;45056;47.602;9.886;2024-02-04T03:22:33;93969.72;;;6.11;64.52
59289;BME280;45056;47.602;9.886;2024-02-04T03:25:01;93974.72;;;6.12;64.37
59289;BME280;45056;47.602;9.886;2024-02-04T03:27:29;93978.97;;;6.13;64.37
59289;BME280;45056;47.602;9.886;2024-02-04T03:29:58;93988.59;;;6.14;64.27
59289;BME280;45056;47.602;9.886;2024-02-04T03:32:26;93992.09;;;6.15;64.24
59289;BME280;45056;47.602;9.886;2024-02-04T03:34:55;93995.56;;;6.15;64.05
59289;BME280;45056;47.602;9.886;2024-02-04T03:37:23;94000.56;;;6.13;63.97
59289;BME280;45056;47.602;9.886;2024-02-04T03:39:51;93999.03;;;6.12;64.03
59289;BME280;45056;47.602;9.886;2024-02-04T03:42:19;94001.34;;;6.10;64.26
59289;BME280;45056;47.602;9.886;2024-02-04T03:44:49;94006.00;;;6.10;64.71
59289;BME280;45056;47.602;9.886;2024-02-04T03:47:18;93998.63;;;6.06;64.97
59289;BME280;45056;47.602;9.886;2024-02-04T03:49:46;93997.09;;;6.05;65.37
59289;BME280;45056;47.602;9.886;2024-02-04T03:52:15;93991.69;;;6.05;65.60
59289;BME280;45056;47.602;9.886;2024-02-04T03:54:43;93989.00;;;6.05;65.91
59289;BME280;45056;47.602;9.886;2024-02-04T03:57:11;93994.78;;;6.04;66.19
59289;BME280;45056;47.602;9.886;2024-02-04T03:59:39;93994.41;;;6.02;66.38
59289;BME280;45056;47.602;9.886;2024-02-04T04:02:07;94001.72;;;5.98;66.55
59289;BME280;45056;47.602;9.886;2024-02-04T04:04:36;94005.56;;;5.93;66.75
59289;BME280;45056;47.602;9.886;2024-02-04T04:07:07;94010.59;;;5.91;66.83
59289;BME280;45056;47.602;9.886;2024-02-04T04:09:34;94009.03;;;5.86;66.99
59289;BME280;45056;47.602;9.886;2024-02-04T04:12:03;94019.84;;;5.83;67.16
59289;BME280;45056;47.602;9.886;2024-02-04T04:14:31;94018.69;;;5.80;67.38
59289;BME280;45056;47.602;9.886;2024-02-04T04:16:59;94021.00;;;5.78;67.47
59289;BME280;45056;47.602;9.886;2024-02-04T04:19:27;94023.31;;;5.76;67.51
59289;BME280;45056;47.602;9.886;2024-02-04T04:21:56;94021.38;;;5.73;67.41
59289;BME280;45056;47.602;9.886;2024-02-04T04:24:26;94018.66;;;5.73;67.60
59289;BME280;45056;47.602;9.886;2024-02-04T04:26:54;94024.81;;;5.73;67.39
59289;BME280;45056;47.602;9.886;2024-02-04T04:29:22;94024.81;;;5.73;67.54
59289;BME280;45056;47.602;9.886;2024-02-04T04:31:50;94030.25;;;5.77;67.48
59289;BME280;45056;47.602;9.886;2024-02-04T04:34:18;94031.00;;;5.74;67.43
59289;BME280;45056;47.602;9.886;2024-02-04T04:36:46;94042.19;;;5.76;67.57
59289;BME280;45056;47.602;9.886;2024-02-04T04:39:16;94032.56;;;5.75;67.66
59289;BME280;45056;47.602;9.886;2024-02-04T04:41:44;94031.78;;;5.74;67.71
59289;BME280;45056;47.602;9.886;2024-02-04T04:44:12;94029.47;;;5.76;67.74
59289;BME280;45056;47.602;9.886;2024-02-04T04:46:41;94029.47;;;5.76;67.80
59289;BME280;45056;47.602;9.886;2024-02-04T04:49:09;94021.75;;;5.75;67.88
59289;BME280;45056;47.602;9.886;2024-02-04T04:51:37;94017.50;;;5.74;67.91
59289;BME280;45056;47.602;9.886;2024-02-04T04:54:05;94007.88;;;5.73;68.02
59289;BME280;45056;47.602;9.886;2024-02-04T04:56:39;94015.59;;;5.71;68.13
59289;BME280;45056;47.602;9.886;2024-02-04T04:59:07;94008.25;;;5.68;68.23
59289;BME280;45056;47.602;9.886;2024-02-04T05:01:35;94006.72;;;5.67;68.43
59289;BME280;45056;47.602;9.886;2024-02-04T05:04:03;94000.13;;;5.64;68.35
59289;BME280;45056;47.602;9.886;2024-02-04T05:06:31;94005.94;;;5.62;68.43
59289;BME280;45056;47.602;9.886;2024-02-04T05:08:59;94006.28;;;5.57;68.53
59289;BME280;45056;47.602;9.886;2024-02-04T05:11:27;94005.13;;;5.55;68.38
59289;BME280;45056;47.602;9.886;2024-02-04T05:13:57;94027.13;;;5.49;68.48
59289;BME280;45056;47.602;9.886;2024-02-04T05:16:25;94027.09;;;5.46;68.66
59289;BME280;45056;47.602;9.886;2024-02-04T05:18:53;94035.97;;;5.43;68.60
59289;BME280;45056;47.602;9.886;2024-02-04T05:21:21;94025.94;;;5.40;68.63
59289;BME280;45056;47.602;9.886;2024-02-04T05:23:48;94028.59;;;5.36;68.73
59289;BME280;45056;47.602;9.886;2024-02-04T05:26:17;94037.09;;;5.34;68.86
59289;BME280;45056;47.602;9.886;2024-02-04T05:28:45;94047.09;;;5.34;68.92
59289;BME280;45056;47.602;9.886;2024-02-04T05:31:14;94047.88;;;5.34;68.98
59289;BME280;45056;47.602;9.886;2024-02-04T05:33:42;94041.72;;;5.38;68.99
59289;BME280;45056;47.602;9.886;2024-02-04T05:36:10;94034.78;;;5.40;68.71
59289;BME280;45056;47.602;9.886;2024-02-04T05:38:38;94030.16;;;5.41;68.71
59289;BME280;45056;47.602;9.886;2024-02-04T05:41:06;94029.78;;;5.42;68.71
59289;BME280;45056;47.602;9.886;2024-02-04T05:43:34;94038.66;;;5.43;68.84
59289;BME280;45056;47.602;9.886;2024-02-04T05:46:02;94034.81;;;5.44;68.57
59289;BME280;45056;47.602;9.886;2024-02-04T05:48:31;94037.88;;;5.42;68.62
59289;BME280;45056;47.602;9.886;2024-02-04T05:51:00;94037.88;;;5.42;68.81
59289;BME280;45056;47.602;9.886;2024-02-04T05:53:27;94029.78;;;5.42;68.85
59289;BME280;45056;47.602;9.886;2024-02-04T05:55:55;94027.84;;;5.43;68.96
59289;BME280;45056;47.602;9.886;2024-02-04T05:58:23;94035.97;;;5.43;68.86
59289;BME280;45056;47.602;9.886;2024-02-04T06:00:51;94029.41;;;5.44;69.02
59289;BME280;45056;47.602;9.886;2024-02-04T06:03:19;94032.09;;;5.44;69.01
59289;BME280;45056;47.602;9.886;2024-02-04T06:05:49;94032.09;;;5.44;68.97
59289;BME280;45056;47.602;9.886;2024-02-04T06:08:17;94042.50;;;5.42;68.97
59289;BME280;45056;47.602;9.886;2024-02-04T06:10:45;94031.69;;;5.34;69.13
59289;BME280;45056;47.602;9.886;2024-02-04T06:13:14;94040.13;;;5.29;69.17
59289;BME280;45056;47.602;9.886;2024-02-04T06:15:42;94023.56;;;5.24;69.37
59289;BME280;45056;47.602;9.886;2024-02-04T06:18:10;94015.44;;;5.20;69.27
59289;BME280;45056;47.602;9.886;2024-02-04T06:20:38;94013.50;;;5.17;69.37
59289;BME280;45056;47.602;9.886;2024-02-04T06:23:08;94023.13;;;5.14;69.55
59289;BME280;45056;47.602;9.886;2024-02-04T06:25:35;94030.84;;;5.16;69.76
59289;BME280;45056;47.602;9.886;2024-02-04T06:28:03;94037.03;;;5.16;69.66
59289;BME280;45056;47.602;9.886;2024-02-04T06:30:32;94040.50;;;5.17;69.64
59289;BME280;45056;47.602;9.886;2024-02-04T06:33:00;94042.81;;;5.18;69.83
59289;BME280;45056;47.602;9.886;2024-02-04T06:35:29;94037.41;;;5.22;69.83
59289;BME280;45056;47.602;9.886;2024-02-04T06:37:57;94037.81;;;5.24;69.79
59289;BME280;45056;47.602;9.886;2024-02-04T06:40:26;94047.44;;;5.25;69.54
59289;BME280;45056;47.602;9.886;2024-02-04T06:42:54;94044.75;;;5.25;69.64
59289;BME280;45056;47.602;9.886;2024-02-04T06:45:22;94044.75;;;5.25;69.64
59289;BME280;45056;47.602;9.886;2024-02-04T06:47:50;94036.66;;;5.25;69.70
59289;BME280;45056;47.602;9.886;2024-02-04T06:50:18;94032.81;;;5.26;69.73
59289;BME280;45056;47.602;9.886;2024-02-04T06:52:46;94032.81;;;5.26;69.61
59289;BME280;45056;47.602;9.886;2024-02-04T06:55:14;94034.34;;;5.27;69.53
59289;BME280;45056;47.602;9.886;2024-02-04T06:57:44;94040.16;;;5.26;69.40
59289;BME280;45056;47.602;9.886;2024-02-04T07:00:12;94040.50;;;5.24;69.51
59289;BME280;45056;47.602;9.886;2024-02-04T07:02:42;94033.97;;;5.25;69.72
59289;BME280;45056;47.602;9.886;2024-02-04T07:05:10;94039.00;;;5.27;69.56
59289;BME280;45056;47.602;9.886;2024-02-04T07:07:38;94048.63;;;5.28;69.68
59289;BME280;45056;47.602;9.886;2024-02-04T07:10:07;94060.59;;;5.30;69.62
59289;BME280;45056;47.602;9.886;2024-02-04T07:12:35;94047.09;;;5.34;69.64
59289;BME280;45056;47.602;9.886;2024-02-04T07:15:05;94054.84;;;5.36;69.38
59289;BME280;45056;47.602;9.886;2024-02-04T07:17:34;94059.84;;;5.37;69.50
59289;BME280;45056;47.602;9.886;2024-02-04T07:20:03;94064.47;;;5.37;69.45
59289;BME280;45056;47.602;9.886;2024-02-04T07:22:32;94069.09;;;5.36;69.20
59289;BME280;45056;47.602;9.886;2024-02-04T07:25:01;94062.53;;;5.37;69.42
59289;BME280;45056;47.602;9.886;2024-02-04T07:27:30;94052.53;;;5.38;69.32
59289;BME280;45056;47.602;9.886;2024-02-04T07:29:58;94049.81;;;5.41;69.43
59289;BME280;45056;47.602;9.886;2024-02-04T07:32:27;94042.50;;;5.42;69.23
59289;BME280;45056;47.602;9.886;2024-02-04T07:34:55;94038.66;;;5.43;68.81
59289;BME280;45056;47.602;9.886;2024-02-04T07:37:23;94035.97;;;5.43;68.80
59289;BME280;45056;47.602;9.886;2024-02-04T07:39:51;94040.19;;;5.40;68.77
59289;BME280;45056;47.602;9.886;2024-02-04T07:42:19;94035.19;;;5.39;68.74
59289;BME280;45056;47.602;9.886;2024-02-04T07:44:47;94032.84;;;5.37;68.64
59289;BME280;45056;47.602;9.886;2024-02-04T07:47:15;94033.25;;;5.36;68.63
59289;BME280;45056;47.602;9.886;2024-02-04T07:49:45;94032.44;;;5.35;68.54
59289;BME280;45056;47.602;9.886;2024-02-04T07:52:13;94033.25;;;5.36;68.65
59289;BME280;45056;47.602;9.886;2024-02-04T07:54:41;94047.88;;;5.38;68.78
59289;BME280;45056;47.602;9.886;2024-02-04T07:57:09;94039.81;;;5.42;68.73
59289;BME280;45056;47.602;9.886;2024-02-04T07:59:38;94035.97;;;5.43;68.67
59289;BME280;45056;47.602;9.886;2024-02-04T08:02:06;94036.72;;;5.43;68.50
59289;BME280;45056;47.602;9.886;2024-02-04T08:04:33;94037.50;;;5.44;68.45
59289;BME280;45056;47.602;9.886;2024-02-04T08:07:03;94039.03;;;5.45;68.63
59289;BME280;45056;47.602;9.886;2024-02-04T08:09:31;94041.38;;;5.46;68.53
59289;BME280;45056;47.602;9.886;2024-02-04T08:11:59;94040.22;;;5.47;68.79
59289;BME280;45056;47.602;9.886;2024-02-04T08:14:27;94037.13;;;5.49;68.68
59289;BME280;45056;47.602;9.886;2024-02-04T08:16:55;94035.59;;;5.48;68.82
59289;BME280;45056;47.602;9.886;2024-02-04T08:19:23;94040.22;;;5.47;68.84
59289;BME280;45056;47.602;9.886;2024-02-04T08:21:51;94032.50;;;5.49;68.92
59289;BME280;45056;47.602;9.886;2024-02-04T08:24:20;94024.78;;;5.55;68.79
59289;BME280;45056;47.602;9.886;2024-02-04T08:26:48;94020.97;;;5.63;68.71
59289;BME280;45056;47.602;9.886;2024-02-04T08:29:16;94020.59;;;5.72;68.40
59289;BME280;45056;47.602;9.886;2024-02-04T08:31:44;94021.75;;;5.82;68.38
59289;BME280;45056;47.602;9.886;2024-02-04T08:34:12;94014.03;;;5.84;68.25
59289;BME280;45056;47.602;9.886;2024-02-04T08:36:40;94011.72;;;5.86;68.44
59289;BME280;45056;47.602;9.886;2024-02-04T08:39:08;94002.47;;;5.91;68.46
59289;BME280;45056;47.602;9.886;2024-02-04T08:41:38;94003.25;;;5.99;68.25
59289;BME280;45056;47.602;9.886;2024-02-04T08:44:06;94013.31;;;6.09;68.03
59289;BME280;45056;47.602;9.886;2024-02-04T08:46:34;94023.00;;;6.25;67.56
59289;BME280;45056;47.602;9.886;2024-02-04T08:49:02;94022.19;;;6.39;67.19
59289;BME280;45056;47.602;9.886;2024-02-04T08:51:30;94019.09;;;6.51;66.79
59289;BME280;45056;47.602;9.886;2024-02-04T08:53:58;94009.41;;;6.64;66.49
59289;BME280;45056;47.602;9.886;2024-02-04T08:56:26;94013.63;;;6.80;66.39
59289;BME280;45056;47.602;9.886;2024-02-04T08:58:55;94009.31;;;6.97;65.80
59289;BME280;45056;47.602;9.886;2024-02-04T09:01:23;94018.53;;;7.14;65.30
59289;BME280;45056;47.602;9.886;2024-02-04T09:03:51;94020.00;;;7.30;65.02
59289;BME280;45056;47.602;9.886;2024-02-04T09:06:19;94020.34;;;7.46;64.75
59289;BME280;45056;47.602;9.886;2024-02-04T09:08:47;94010.97;;;7.62;64.11
59289;BME280;45056;47.602;9.886;2024-02-04T09:11:15;94010.91;;;7.73;63.04
59289;BME280;45056;47.602;9.886;2024-02-04T09:13:45;94004.28;;;7.81;62.78
59289;BME280;45056;47.602;9.886;2024-02-04T09:16:16;93997.28;;;7.87;62.53
59289;BME280;45056;47.602;9.886;2024-02-04T09:18:43;94005.72;;;7.93;62.41
59289;BME280;45056;47.602;9.886;2024-02-04T09:21:12;93994.06;;;8.00;62.07
59289;BME280;45056;47.602;9.886;2024-02-04T09:23:41;93990.94;;;8.05;62.10
59289;BME280;45056;47.602;9.886;2024-02-04T09:26:09;93995.16;;;8.13;62.26
59289;BME280;45056;47.602;9.886;2024-02-04T09:28:37;94004.38;;;8.19;62.18
59289;BME280;45056;47.602;9.886;2024-02-04T09:31:07;94002.41;;;8.23;61.98
59289;BME280;45056;47.602;9.886;2024-02-04T09:33:37;93995.03;;;8.28;61.62
59289;BME280;45056;47.602;9.886;2024-02-04T09:36:07;93994.63;;;8.29;61.36
59289;BME280;45056;47.602;9.886;2024-02-04T09:38:35;93994.22;;;8.31;61.09
59289;BME280;45056;47.602;9.886;2024-02-04T09:41:03;93991.47;;;8.34;60.80
59289;BME280;45056;47.602;9.886;2024-02-04T09:43:32;93996.44;;;8.43;60.53
59289;BME280;45056;47.602;9.886;2024-02-04T09:46:03;93996.81;;;8.45;60.14
59289;BME280;45056;47.602;9.886;2024-02-04T09:48:33;93997.56;;;8.46;59.76
59289;BME280;45056;47.602;9.886;2024-02-04T09:51:03;94004.16;;;8.48;59.82
59289;BME280;45056;47.602;9.886;2024-02-04T09:53:34;94013.03;;;8.52;59.56
59289;BME280;45056;47.602;9.886;2024-02-04T09:56:04;94013.78;;;8.57;59.30
59289;BME280;45056;47.602;9.886;2024-02-04T09:58:34;94022.25;;;8.62;59.08
59289;BME280;45056;47.602;9.886;2024-02-04T10:01:04;94029.97;;;8.64;58.83
59289;BME280;45056;47.602;9.886;2024-02-04T10:03:35;94019.09;;;8.68;58.65
59289;BME280;45056;47.602;9.886;2024-02-04T10:06:05;94021.03;;;8.67;58.45
59289;BME280;45056;47.602;9.886;2024-02-04T10:08:35;94018.66;;;8.73;58.54
59289;BME280;45056;47.602;9.886;2024-02-04T10:11:04;94015.94;;;8.76;58.33
59289;BME280;45056;47.602;9.886;2024-02-04T10:13:42;94009.69;;;8.79;58.24
59289;BME280;45056;47.602;9.886;2024-02-04T10:16:12;94001.91;;;8.82;58.13
59289;BME280;45056;47.602;9.886;2024-02-04T10:18:41;94006.47;;;8.88;58.06
59289;BME280;45056;47.602;9.886;2024-02-04T10:21:19;94010.69;;;8.97;57.69
59289;BME280;45056;47.602;9.886;2024-02-04T10:23:49;94003.25;;;9.01;57.25
59289;BME280;45056;47.602;9.886;2024-02-04T10:26:18;94011.72;;;9.06;57.12
59289;BME280;45056;47.602;9.886;2024-02-04T10:28:47;94014.00;;;9.12;56.90
59289;BME280;45056;47.602;9.886;2024-02-04T10:31:16;94017.84;;;9.14;56.94
59289;BME280;45056;47.602;9.886;2024-02-04T10:33:44;94011.66;;;9.14;56.75
59289;BME280;45056;47.602;9.886;2024-02-04T10:36:12;94004.69;;;9.13;56.77
59289;BME280;45056;47.602;9.886;2024-02-04T10:38:41;94009.31;;;9.12;57.02
59289;BME280;45056;47.602;9.886;2024-02-04T10:41:14;94003.13;;;9.12;56.75
59289;BME280;45056;47.602;9.886;2024-02-04T10:43:44;94001.59;;;9.11;56.79
59289;BME280;45056;47.602;9.886;2024-02-04T10:46:18;93993.81;;;9.13;56.62
59289;BME280;45056;47.602;9.886;2024-02-04T10:48:54;93993.28;;;9.25;56.33
59289;BME280;45056;47.602;9.886;2024-02-04T10:51:25;93992.75;;;9.37;55.99
59289;BME280;45056;47.602;9.886;2024-02-04T10:53:55;94001.06;;;9.54;55.69
59289;BME280;45056;47.602;9.886;2024-02-04T10:56:28;93999.03;;;9.62;55.02
59289;BME280;45056;47.602;9.886;2024-02-04T10:58:59;93995.47;;;9.65;54.94
59289;BME280;45056;47.602;9.886;2024-02-04T11:01:30;93991.19;;;9.67;54.76
59289;BME280;45056;47.602;9.886;2024-02-04T11:03:59;93989.22;;;9.68;54.58
59289;BME280;45056;47.602;9.886;2024-02-04T11:06:30;93989.13;;;9.75;54.68
59289;BME280;45056;47.602;9.886;2024-02-04T11:09:01;93982.00;;;9.85;54.13
59289;BME280;45056;47.602;9.886;2024-02-04T11:11:30;93985.31;;;9.96;53.96
59289;BME280;45056;47.602;9.886;2024-02-04T11:14:06;93983.94;;;10.12;53.48
59289;BME280;45056;47.602;9.886;2024-02-04T11:17:17;93971.69;;;10.24;53.42
59289;BME280;45056;47.602;9.886;2024-02-04T11:20:12;93972.97;;;10.39;53.44
59289;BME280;45056;47.602;9.886;2024-02-04T11:23:05;93967.97;;;10.62;53.65
59289;BME280;45056;47.602;9.886;2024-02-04T11:25:52;93963.66;;;10.85;53.05
59289;BME280;45056;47.602;9.886;2024-02-04T11:28:23;93953.53;;;11.05;52.57
59289;BME280;45056;47.602;9.886;2024-02-04T11:30:53;93945.78;;;11.24;51.93
59289;BME280;45056;47.602;9.886;2024-02-04T11:33:22;93947.06;;;11.36;52.04
59289;BME280;45056;47.602;9.886;2024-02-04T11:39:33;93930.09;;;11.48;51.32
59289;BME280;45056;47.602;9.886;2024-02-04T11:42:14;93922.25;;;11.50;51.40
59289;BME280;45056;47.602;9.886;2024-02-04T11:44:43;93919.03;;;11.55;51.87
59289;BME280;45056;47.602;9.886;2024-02-04T11:47:22;93918.09;;;11.62;51.66
59289;BME280;45056;47.602;9.886;2024-02-04T11:49:54;93914.09;;;11.67;51.79
59289;BME280;45056;47.602;9.886;2024-02-04T11:52:23;93914.34;;;11.73;51.64
59289;BME280;45056;47.602;9.886;2024-02-04T11:54:54;93917.75;;;11.77;51.64
59289;BME280;45056;47.602;9.886;2024-02-04T11:57:25;93911.13;;;11.78;51.70
59289;BME280;45056;47.602;9.886;2024-02-04T11:59:54;93916.50;;;11.81;52.07
59289;BME280;45056;47.602;9.886;2024-02-04T12:02:22;93922.22;;;11.87;52.07
59289;BME280;45056;47.602;9.886;2024-02-04T12:04:51;93936.09;;;11.93;51.93
59289;BME280;45056;47.602;9.886;2024-02-04T12:07:19;93934.16;;;11.93;51.42
59289;BME280;45056;47.602;9.886;2024-02-04T12:09:49;93933.13;;;11.87;51.38
59289;BME280;45056;47.602;9.886;2024-02-04T12:12:17;93923.16;;;11.80;51.20
59289;BME280;45056;47.602;9.886;2024-02-04T12:14:48;93927.31;;;11.68;51.52
59289;BME280;45056;47.602;9.886;2024-02-04T12:17:18;93930.72;;;11.56;51.39
59289;BME280;45056;47.602;9.886;2024-02-04T12:19:47;93936.41;;;11.45;51.76
59289;BME280;45056;47.602;9.886;2024-02-04T12:22:16;93941.22;;;11.37;51.96
59289;BME280;45056;47.602;9.886;2024-02-04T12:24:45;93944.44;;;11.32;51.97
59289;BME280;45056;47.602;9.886;2024-02-04T12:27:15;93954.66;;;11.28;52.05
59289;BME280;45056;47.602;9.886;2024-02-04T12:29:44;93950.13;;;11.21;52.03
59289;BME280;45056;47.602;9.886;2024-02-04T12:32:14;93940.81;;;11.19;52.05
59289;BME280;45056;47.602;9.886;2024-02-04T12:34:46;93928.72;;;11.20;51.98
59289;BME280;45056;47.602;9.886;2024-02-04T12:37:14;93938.44;;;11.21;51.97
59289;BME280;45056;47.602;9.886;2024-02-04T12:39:42;93931.19;;;11.14;51.70
59289;BME280;45056;47.602;9.886;2024-02-04T12:42:15;93919.34;;;11.04;51.93
59289;BME280;45056;47.602;9.886;2024-02-04T12:44:45;93912.50;;;10.96;52.42
59289;BME280;45056;47.602;9.886;2024-02-04T12:47:18;93905.53;;;10.95;52.59
59289;BME280;45056;47.602;9.886;2024-02-04T12:49:47;93904.25;;;11.00;52.59
59289;BME280;45056;47.602;9.886;2024-02-04T12:52:21;93890.97;;;11.02;52.39
59289;BME280;45056;47.602;9.886;2024-02-04T12:54:50;93889.72;;;11.06;52.45
59289;BME280;45056;47.602;9.886;2024-02-04T12:57:23;93888.81;;;11.13;52.20
59289;BME280;45056;47.602;9.886;2024-02-04T12:59:51;93878.78;;;11.26;51.97
59289;BME280;45056;47.602;9.886;2024-02-04T13:02:20;93875.66;;;11.45;51.80
59289;BME280;45056;47.602;9.886;2024-02-04T13:04:49;93881.81;;;11.65;51.09
59289;BME280;45056;47.602;9.886;2024-02-04T13:07:18;93882.94;;;11.84;50.86
59289;BME280;45056;47.602;9.886;2024-02-04T13:09:45;93880.56;;;12.03;50.70
59289;BME280;45056;47.602;9.886;2024-02-04T13:12:14;93874.00;;;12.17;50.55
59289;BME280;45056;47.602;9.886;2024-02-04T13:14:43;93868.50;;;12.34;49.56
59289;BME280;45056;47.602;9.886;2024-02-04T13:17:12;93866.72;;;12.57;49.32
59289;BME280;45056;47.602;9.886;2024-02-04T13:19:41;93870.81;;;12.78;48.88
59289;BME280;45056;47.602;9.886;2024-02-04T13:22:09;93873.47;;;12.94;47.55
59289;BME280;45056;47.602;9.886;2024-02-04T13:24:38;93873.16;;;13.05;46.94